Terminal Aerodrome Forecast
Issued by NWS

Home | Current Version | Previous Version | Text Only | Print | Product List | Glossary Off
Versions: 1 2 3 4 5 6 7 8 9 10 11 12 13 14 15 16 17 18 19 20 21 22 23 24

000
FTUS43 KGRB 201417 AAC
TAFRHI
TAF AMD
KRHI 201417Z 2014/2112 14010G14KT P6SM SCT008 BKN015
     FM201600 15010G16KT P6SM BKN025
     FM201800 17010G16KT P6SM SCT015 BKN070
     FM201900 18009KT P6SM VCTS BKN015CB
     FM210200 32004KT P6SM SCT012 BKN035
     FM210600 34004KT 5SM BR BKN010
     FM210800 04004KT 2SM BR BKN006=

USA.gov is the U.S. government's official web portal to all federal, state and local government web resources and services.